createdAt,value
2022-09-27T00:01:13.817Z,15.43
2022-09-27T00:03:41.464Z,14.75
2022-09-27T00:06:11.861Z,16.85
2022-09-27T00:08:39.059Z,18.38
2022-09-27T00:11:09.218Z,15.38
2022-09-27T00:13:36.378Z,16.17
2022-09-27T00:16:07.344Z,15.65
2022-09-27T00:18:35.220Z,17.00
2022-09-27T00:21:06.364Z,16.92
2022-09-27T00:26:01.690Z,16.20
2022-09-27T00:28:29.200Z,20.25
2022-09-27T00:30:56.537Z,16.20
2022-09-27T00:33:24.211Z,17.13
2022-09-27T00:35:51.596Z,17.15
2022-09-27T00:38:18.972Z,19.08
2022-09-27T00:40:46.505Z,17.77
2022-09-27T00:43:16.832Z,20.48
2022-09-27T00:45:45.815Z,19.10
2022-09-27T00:48:15.830Z,20.88
2022-09-27T00:50:47.016Z,17.83
2022-09-27T00:55:53.833Z,20.35
2022-09-27T00:58:22.650Z,20.00
2022-09-27T01:00:52.881Z,21.73
2022-09-27T01:03:26.478Z,20.87
2022-09-27T01:05:54.157Z,24.98
2022-09-27T01:08:21.296Z,22.92
2022-09-27T01:10:54.589Z,23.38
2022-09-27T01:13:26.227Z,23.00
2022-09-27T01:16:01.608Z,23.25
2022-09-27T01:18:49.081Z,20.65
2022-09-27T01:21:25.358Z,25.73
2022-09-27T01:24:01.441Z,28.38
2022-09-27T01:26:40.578Z,32.47
2022-09-27T01:29:22.831Z,30.50
2022-09-27T01:32:05.697Z,31.05
2022-09-27T01:34:44.897Z,31.15
2022-09-27T01:37:21.131Z,29.75
2022-09-27T01:39:51.091Z,31.55
2022-09-27T01:42:22.917Z,32.20
2022-09-27T01:44:52.536Z,33.53
2022-09-27T01:47:23.918Z,32.17
2022-09-27T01:50:09.352Z,35.47
2022-09-27T01:52:39.919Z,34.05
2022-09-27T01:55:08.824Z,33.40
2022-09-27T01:57:37.934Z,38.13
2022-09-27T02:00:08.019Z,40.45
2022-09-27T02:02:38.938Z,35.38
2022-09-27T02:05:07.543Z,35.17
2022-09-27T02:07:41.043Z,35.75
2022-09-27T02:10:17.138Z,33.67
2022-09-27T02:12:50.411Z,33.17
2022-09-27T02:15:18.127Z,34.08
2022-09-27T02:17:45.316Z,42.33
2022-09-27T02:20:18.752Z,41.05
2022-09-27T02:22:50.395Z,45.05
2022-09-27T02:25:23.629Z,43.65
2022-09-27T02:27:53.616Z,45.17
2022-09-27T02:30:21.064Z,40.78
2022-09-27T02:32:48.421Z,39.30
2022-09-27T02:35:33.180Z,41.90
2022-09-27T02:38:00.537Z,44.22
2022-09-27T02:40:30.925Z,45.65
2022-09-27T02:42:58.371Z,44.15
2022-09-27T02:45:30.350Z,42.10
2022-09-27T02:48:00.755Z,44.53
2022-09-27T02:51:00.615Z,48.42
2022-09-27T02:53:48.018Z,46.92
2022-09-27T02:56:21.598Z,45.50
2022-09-27T02:58:55.278Z,42.80
2022-09-27T03:01:22.554Z,47.58
2022-09-27T03:03:55.575Z,46.15
2022-09-27T03:06:23.870Z,49.13
2022-09-27T03:08:51.715Z,50.13
2022-09-27T03:11:19.027Z,50.45
2022-09-27T03:14:07.353Z,53.42
2022-09-27T03:16:33.553Z,58.28
2022-09-27T03:19:01.218Z,57.20
2022-09-27T03:21:29.229Z,60.97
2022-09-27T03:23:56.383Z,53.00
2022-09-27T03:26:23.716Z,54.72
2022-09-27T03:28:50.901Z,59.42
2022-09-27T03:31:18.128Z,61.35
2022-09-27T03:33:45.459Z,58.47
2022-09-27T03:36:12.658Z,59.58
2022-09-27T03:38:40.370Z,54.22
2022-09-27T03:41:07.670Z,56.38
2022-09-27T03:43:34.822Z,58.08
2022-09-27T03:46:02.084Z,57.22
2022-09-27T03:48:31.283Z,56.72
2022-09-27T03:50:58.486Z,55.83
2022-09-27T03:53:25.705Z,59.55
2022-09-27T03:55:53.053Z,59.65
2022-09-27T03:58:20.255Z,56.95
2022-09-27T04:00:47.526Z,53.72
2022-09-27T04:03:14.843Z,56.20
2022-09-27T04:05:41.980Z,55.08
2022-09-27T04:08:11.095Z,58.47
2022-09-27T04:10:38.656Z,56.22
2022-09-27T04:13:06.057Z,57.00
2022-09-27T04:15:33.236Z,57.50
2022-09-27T04:18:00.527Z,58.35
2022-09-27T04:20:27.698Z,57.03
2022-09-27T04:22:54.855Z,58.78
2022-09-27T04:25:22.162Z,58.72
2022-09-27T04:27:52.013Z,65.55
2022-09-27T04:30:19.192Z,64.90
2022-09-27T04:32:46.549Z,65.18
2022-09-27T04:35:33.209Z,70.75
2022-09-27T04:38:01.265Z,70.32
2022-09-27T04:40:28.540Z,68.90
2022-09-27T04:42:56.281Z,62.50
2022-09-27T04:45:23.595Z,59.75
2022-09-27T04:47:51.409Z,67.22
2022-09-27T04:50:20.110Z,68.63
2022-09-27T04:52:54.299Z,69.32
2022-09-27T04:55:22.333Z,67.40
2022-09-27T04:57:50.082Z,81.88
2022-09-27T05:00:17.801Z,65.43
2022-09-27T05:02:45.669Z,72.70
2022-09-27T05:05:12.859Z,70.20
2022-09-27T05:07:40.086Z,69.82
2022-09-27T05:10:08.258Z,73.72
2022-09-27T05:12:36.060Z,76.53
2022-09-27T05:15:03.758Z,72.85
2022-09-27T05:17:31.027Z,73.13
2022-09-27T05:19:58.227Z,67.95
2022-09-27T05:22:25.470Z,74.97
2022-09-27T05:24:52.887Z,73.15
2022-09-27T05:27:20.481Z,73.65
2022-09-27T05:29:48.267Z,71.88
2022-09-27T05:32:15.815Z,69.30
2022-09-27T05:34:43.110Z,72.15
2022-09-27T05:37:10.891Z,69.78
2022-09-27T05:39:38.073Z,75.50
2022-09-27T05:42:07.284Z,70.95
2022-09-27T05:44:35.557Z,70.90
2022-09-27T05:47:05.986Z,69.57
2022-09-27T05:49:33.679Z,72.45
2022-09-27T05:52:01.277Z,73.47
2022-09-27T05:54:29.899Z,73.65
2022-09-27T05:57:01.060Z,70.70
2022-09-27T06:01:56.673Z,63.78
2022-09-27T06:04:24.064Z,74.00
2022-09-27T06:06:51.275Z,70.55
2022-09-27T06:09:18.471Z,60.83
2022-09-27T06:11:46.378Z,73.18
2022-09-27T06:14:14.376Z,62.92
2022-09-27T06:16:41.582Z,62.72
2022-09-27T06:19:09.323Z,57.58
2022-09-27T06:21:37.554Z,57.55
2022-09-27T06:24:04.820Z,67.55
2022-09-27T06:26:32.990Z,60.13
2022-09-27T06:29:00.140Z,59.63
2022-09-27T06:31:27.287Z,58.75
2022-09-27T06:33:54.641Z,59.58
2022-09-27T06:36:21.856Z,56.83
2022-09-27T06:38:49.779Z,51.45
2022-09-27T06:41:17.034Z,50.00
2022-09-27T06:43:45.172Z,54.92
2022-09-27T06:46:12.491Z,58.83
2022-09-27T06:48:39.742Z,57.83
2022-09-27T06:51:06.955Z,66.85
2022-09-27T06:53:34.253Z,63.85
2022-09-27T06:56:02.430Z,69.93
2022-09-27T06:58:48.778Z,66.15
2022-09-27T07:01:16.692Z,66.30
2022-09-27T07:03:44.500Z,77.38
2022-09-27T07:06:16.245Z,75.25
2022-09-27T07:08:44.020Z,72.35
2022-09-27T07:11:11.219Z,69.50
2022-09-27T07:13:42.876Z,83.05
2022-09-27T07:16:13.300Z,70.78
2022-09-27T07:18:41.414Z,68.93
2022-09-27T07:21:12.733Z,64.55
2022-09-27T07:23:40.105Z,84.43
2022-09-27T07:26:10.426Z,73.63
2022-09-27T07:28:37.794Z,74.07
2022-09-27T07:31:05.577Z,68.20
2022-09-27T07:33:33.151Z,75.53
2022-09-27T07:36:00.447Z,80.97
2022-09-27T07:38:27.647Z,79.93
2022-09-27T07:40:54.866Z,71.78
2022-09-27T07:43:22.219Z,79.15
2022-09-27T07:45:49.470Z,79.93
2022-09-27T07:48:17.357Z,70.18
2022-09-27T07:50:44.647Z,75.65
2022-09-27T07:53:13.854Z,92.40
2022-09-27T07:55:41.301Z,81.80
2022-09-27T07:58:10.417Z,77.50
2022-09-27T08:00:38.185Z,78.47
2022-09-27T08:03:09.554Z,80.38
2022-09-27T08:05:37.424Z,74.43
2022-09-27T08:08:05.468Z,68.80
2022-09-27T08:10:33.349Z,78.13
2022-09-27T08:13:03.544Z,65.80
2022-09-27T08:15:36.020Z,69.03
2022-09-27T08:18:03.246Z,71.00
2022-09-27T08:20:30.629Z,72.13
2022-09-27T08:22:57.954Z,72.10
2022-09-27T08:25:25.303Z,73.10
2022-09-27T08:27:56.816Z,70.80
2022-09-27T08:30:24.069Z,70.90
2022-09-27T08:32:55.171Z,72.40
2022-09-27T08:37:56.722Z,73.25
2022-09-27T08:40:27.746Z,78.80
2022-09-27T08:43:05.938Z,74.18
2022-09-27T08:45:40.436Z,83.30
2022-09-27T08:48:10.567Z,76.35
2022-09-27T08:50:40.401Z,78.93
2022-09-27T08:53:26.519Z,77.15
2022-09-27T08:55:55.343Z,73.88
2022-09-27T08:58:26.558Z,75.40
2022-09-27T09:03:24.730Z,73.90
2022-09-27T09:06:10.508Z,69.07
2022-09-27T09:08:48.759Z,74.20
2022-09-27T09:11:39.602Z,73.82
2022-09-27T09:14:14.963Z,66.07
2022-09-27T09:16:49.736Z,66.28
2022-09-27T09:19:35.790Z,54.25
2022-09-27T09:22:21.480Z,50.08
2022-09-27T09:24:54.457Z,47.00
2022-09-27T09:27:24.711Z,46.60
2022-09-27T09:30:02.417Z,39.93
2022-09-27T09:32:32.458Z,40.70
2022-09-27T09:35:02.038Z,38.92
2022-09-27T09:37:41.049Z,38.75
2022-09-27T09:40:27.318Z,41.00
2022-09-27T09:43:11.414Z,39.85
2022-09-27T09:45:41.941Z,45.33
2022-09-27T09:48:18.329Z,36.85
2022-09-27T09:50:49.673Z,37.95
2022-09-27T09:53:35.514Z,32.78
2022-09-27T09:56:14.331Z,41.63
2022-09-27T09:58:49.249Z,40.60
2022-09-27T10:01:23.609Z,41.28
2022-09-27T10:03:51.045Z,41.95
2022-09-27T10:06:18.828Z,36.75
2022-09-27T10:08:46.108Z,40.17
2022-09-27T10:11:27.406Z,42.05
2022-09-27T10:13:58.072Z,43.70
2022-09-27T10:16:28.928Z,46.55
2022-09-27T10:18:58.302Z,49.80
2022-09-27T10:21:28.769Z,51.05
2022-09-27T10:24:18.224Z,47.40
2022-09-27T10:26:47.627Z,50.25
2022-09-27T10:29:17.754Z,54.60
2022-09-27T10:31:49.161Z,50.28
2022-09-27T10:34:19.459Z,55.88
2022-09-27T10:36:46.821Z,52.15
2022-09-27T10:39:23.917Z,47.17
2022-09-27T10:41:51.125Z,54.60
2022-09-27T10:44:18.515Z,52.53
2022-09-27T10:46:46.577Z,47.83
2022-09-27T10:49:19.786Z,53.38
2022-09-27T10:51:50.177Z,41.72
2022-09-27T10:54:22.275Z,45.55
2022-09-27T10:56:56.094Z,48.42
2022-09-27T10:59:24.049Z,44.10
2022-09-27T11:01:52.976Z,45.78
2022-09-27T11:04:22.254Z,48.90
2022-09-27T11:06:49.846Z,44.78
2022-09-27T11:09:19.022Z,42.83
2022-09-27T11:11:46.861Z,42.80
2022-09-27T11:14:21.698Z,41.50
2022-09-27T11:16:55.213Z,40.13
2022-09-27T11:19:35.055Z,39.55
2022-09-27T11:22:21.088Z,44.55
2022-09-27T11:24:51.803Z,48.50
2022-09-27T11:27:34.121Z,48.40
2022-09-27T11:30:19.894Z,48.90
2022-09-27T11:33:05.960Z,61.35
2022-09-27T11:35:47.037Z,63.50
2022-09-27T11:38:40.722Z,64.82
2022-09-27T11:41:24.941Z,64.10
2022-09-27T11:43:52.246Z,74.38
2022-09-27T11:46:31.908Z,75.63
2022-09-27T11:49:30.183Z,74.25
2022-09-27T11:52:03.153Z,77.78
2022-09-27T11:54:30.429Z,70.22
2022-09-27T11:57:07.867Z,77.80
2022-09-27T12:00:10.962Z,70.90
2022-09-27T12:02:58.697Z,76.25
2022-09-27T12:05:25.953Z,83.88
2022-09-27T12:07:53.093Z,74.90
2022-09-27T12:10:22.549Z,79.72
2022-09-27T12:12:54.894Z,77.72
2022-09-27T12:15:24.122Z,77.25
2022-09-27T12:17:53.537Z,67.20
2022-09-27T12:20:24.580Z,71.88
2022-09-27T12:25:30.216Z,68.97
2022-09-27T12:28:12.932Z,74.95
2022-09-27T12:30:43.083Z,68.78
2022-09-27T12:33:17.127Z,77.10
2022-09-27T12:35:54.923Z,75.28
2022-09-27T12:38:22.061Z,79.55
2022-09-27T12:40:51.831Z,84.40
2022-09-27T12:43:20.653Z,87.50
2022-09-27T12:45:57.146Z,77.95
2022-09-27T12:48:30.165Z,82.97
2022-09-27T12:51:03.634Z,77.90
2022-09-27T12:53:32.489Z,76.03
2022-09-27T12:56:09.843Z,78.80
2022-09-27T12:58:43.258Z,73.63
2022-09-27T13:01:18.463Z,77.88
2022-09-27T13:03:45.730Z,85.63
2022-09-27T13:06:25.067Z,80.93
2022-09-27T13:09:01.894Z,87.57
2022-09-27T13:11:48.970Z,100.28
2022-09-27T13:14:21.612Z,87.47
2022-09-27T13:16:49.424Z,90.47
2022-09-27T13:19:35.142Z,88.47
2022-09-27T13:22:04.845Z,82.07
2022-09-27T13:24:39.409Z,85.93
2022-09-27T13:27:25.091Z,83.03
2022-09-27T13:29:52.658Z,76.70
2022-09-27T13:32:21.024Z,78.93
2022-09-27T13:34:50.557Z,83.55
2022-09-27T13:37:29.819Z,76.78
2022-09-27T13:40:15.904Z,81.03
2022-09-27T13:42:59.258Z,72.07
2022-09-27T13:45:33.145Z,75.18
2022-09-27T13:48:00.695Z,68.57
2022-09-27T13:50:29.952Z,75.53
2022-09-27T13:53:07.110Z,69.90
2022-09-27T13:55:43.401Z,67.53
2022-09-27T13:58:16.543Z,68.68
2022-09-27T14:00:44.930Z,67.35
2022-09-27T14:03:12.105Z,66.57
2022-09-27T14:05:41.626Z,62.92
2022-09-27T14:08:15.438Z,67.22
2022-09-27T14:10:44.261Z,70.40
2022-09-27T14:13:12.214Z,66.47
2022-09-27T14:15:39.566Z,66.18
2022-09-27T14:18:11.425Z,64.45
2022-09-27T14:20:40.826Z,58.78
2022-09-27T14:23:19.597Z,62.50
2022-09-27T14:25:48.207Z,58.22
2022-09-27T14:28:21.642Z,60.10
2022-09-27T14:30:48.857Z,61.50
2022-09-27T14:33:29.853Z,55.80
2022-09-27T14:36:15.551Z,54.53
2022-09-27T14:38:43.091Z,56.50
2022-09-27T14:41:10.550Z,56.38
2022-09-27T14:43:42.591Z,52.67
2022-09-27T14:46:26.482Z,58.28
2022-09-27T14:48:53.882Z,53.08
2022-09-27T14:51:22.506Z,54.15
2022-09-27T14:53:53.357Z,55.60
2022-09-27T14:56:22.729Z,57.63
2022-09-27T14:58:56.763Z,55.65
2022-09-27T15:01:24.357Z,51.58
2022-09-27T15:03:53.665Z,54.13
2022-09-27T15:06:21.431Z,53.45
2022-09-27T15:08:49.509Z,54.00
2022-09-27T15:11:18.001Z,53.25
2022-09-27T15:13:46.458Z,53.65
2022-09-27T15:16:18.913Z,56.80
2022-09-27T15:18:47.621Z,55.40
2022-09-27T15:21:16.521Z,55.20
2022-09-27T15:23:44.988Z,57.15
2022-09-27T15:26:17.731Z,58.50
2022-09-27T15:28:54.210Z,61.20
2022-09-27T15:31:35.293Z,61.13
2022-09-27T15:34:02.902Z,60.30
2022-09-27T15:36:45.491Z,63.55
2022-09-27T15:39:17.388Z,62.53
2022-09-27T15:42:03.207Z,57.88
2022-09-27T15:44:39.235Z,64.78
2022-09-27T15:47:06.585Z,64.43
2022-09-27T15:49:33.810Z,66.60
2022-09-27T15:52:02.305Z,60.35
2022-09-27T15:54:31.998Z,59.90
2022-09-27T15:57:04.280Z,64.07
2022-09-27T15:59:33.927Z,59.10
2022-09-27T16:02:07.772Z,60.75
2022-09-27T16:04:35.139Z,61.75
2022-09-27T16:07:02.997Z,63.65
2022-09-27T16:09:30.610Z,61.15
2022-09-27T16:11:57.855Z,64.63
2022-09-27T16:14:25.082Z,63.78
2022-09-27T16:16:59.091Z,73.45
2022-09-27T16:19:26.460Z,60.65
2022-09-27T16:21:53.600Z,66.93
2022-09-27T16:24:20.766Z,67.53
2022-09-27T16:26:47.978Z,66.05
2022-09-27T16:29:16.403Z,72.80
2022-09-27T16:31:44.288Z,81.32
2022-09-27T16:34:12.461Z,77.38
2022-09-27T16:36:40.696Z,75.75
2022-09-27T16:39:10.151Z,86.85
2022-09-27T16:41:37.436Z,77.38
2022-09-27T16:44:08.317Z,85.40
2022-09-27T16:46:35.927Z,88.18
2022-09-27T16:49:03.523Z,91.03
2022-09-27T16:51:49.230Z,84.30
2022-09-27T16:54:17.657Z,95.72
2022-09-27T16:56:45.693Z,96.00
2022-09-27T16:59:14.032Z,91.70
2022-09-27T17:01:41.402Z,93.13
2022-09-27T17:04:08.581Z,83.22
2022-09-27T17:06:38.212Z,94.10
2022-09-27T17:09:05.654Z,92.05
2022-09-27T17:11:33.274Z,94.35
2022-09-27T17:14:00.459Z,94.55
2022-09-27T17:16:31.276Z,104.82
2022-09-27T17:18:58.665Z,99.35
2022-09-27T17:21:25.869Z,93.97
2022-09-27T17:23:53.683Z,94.72
2022-09-27T17:26:22.302Z,94.07
2022-09-27T17:28:49.984Z,90.75
2022-09-27T17:31:18.736Z,89.82
2022-09-27T17:33:47.667Z,89.40
2022-09-27T17:36:16.941Z,91.20
2022-09-27T17:38:45.858Z,90.00
2022-09-27T17:41:14.758Z,94.53
2022-09-27T17:43:51.939Z,95.78
2022-09-27T17:46:20.069Z,91.65
2022-09-27T17:49:05.963Z,91.13
2022-09-27T17:51:34.154Z,90.05
2022-09-27T17:54:01.386Z,91.35
2022-09-27T17:56:28.732Z,90.20
2022-09-27T17:58:56.693Z,94.03
2022-09-27T18:01:25.191Z,93.03
2022-09-27T18:03:56.287Z,93.25
2022-09-27T18:06:23.874Z,90.03
2022-09-27T18:08:51.630Z,94.32
2022-09-27T18:11:25.427Z,91.03
2022-09-27T18:13:52.588Z,97.47
2022-09-27T18:16:20.023Z,99.68
2022-09-27T18:18:48.382Z,97.30
2022-09-27T18:21:21.694Z,95.97
2022-09-27T18:23:51.711Z,96.18
2022-09-27T18:26:20.031Z,105.55
2022-09-27T18:28:47.247Z,101.82
2022-09-27T18:31:16.269Z,98.88
2022-09-27T18:33:43.924Z,95.43
2022-09-27T18:36:15.943Z,100.20
2022-09-27T18:38:43.413Z,97.05
2022-09-27T18:41:15.346Z,94.45
2022-09-27T18:43:43.434Z,92.70
2022-09-27T18:46:33.837Z,95.28
2022-09-27T18:48:58.956Z,92.38
2022-09-27T18:51:27.496Z,88.75
2022-09-27T18:53:56.282Z,87.95
2022-09-27T18:56:26.832Z,90.70
2022-09-27T18:58:54.447Z,84.10
2022-09-27T19:01:22.500Z,87.40
2022-09-27T19:03:50.213Z,89.68
2022-09-27T19:06:19.286Z,85.13
2022-09-27T19:08:47.089Z,82.47
2022-09-27T19:11:14.390Z,81.13
2022-09-27T19:13:50.274Z,86.07
2022-09-27T19:16:20.996Z,87.00
2022-09-27T19:18:48.830Z,75.57
2022-09-27T19:21:20.415Z,74.93
2022-09-27T19:23:48.993Z,71.75
2022-09-27T19:26:20.817Z,66.38
2022-09-27T19:28:48.282Z,62.92
2022-09-27T19:31:15.798Z,62.88
2022-09-27T19:33:43.263Z,61.30
2022-09-27T19:36:11.539Z,62.25
2022-09-27T19:38:39.472Z,63.55
2022-09-27T19:41:08.097Z,61.55
2022-09-27T19:43:35.542Z,62.08
2022-09-27T19:46:15.377Z,67.28
2022-09-27T19:48:43.286Z,62.38
2022-09-27T19:51:14.366Z,64.18
2022-09-27T19:53:41.765Z,61.08
2022-09-27T19:56:10.271Z,62.65
2022-09-27T19:58:38.437Z,62.10
2022-09-27T20:01:09.513Z,60.05
2022-09-27T20:03:37.604Z,54.72
2022-09-27T20:06:05.765Z,61.10
2022-09-27T20:08:33.369Z,58.17
2022-09-27T20:11:06.081Z,56.20
2022-09-27T20:13:34.454Z,54.35
2022-09-27T20:16:06.361Z,53.90
2022-09-27T20:18:33.680Z,52.92
2022-09-27T20:21:04.700Z,54.70
2022-09-27T20:23:33.034Z,49.63
2022-09-27T20:26:10.574Z,49.53
2022-09-27T20:28:44.590Z,52.42
2022-09-27T20:31:13.200Z,50.70
2022-09-27T20:33:46.765Z,56.45
2022-09-27T20:36:14.157Z,52.25
2022-09-27T20:38:42.519Z,49.35
2022-09-27T20:41:10.530Z,54.20
2022-09-27T20:43:38.254Z,54.72
2022-09-27T20:46:07.016Z,51.65
2022-09-27T20:48:34.816Z,56.83
2022-09-27T20:51:04.621Z,59.63
2022-09-27T20:53:32.422Z,61.43
2022-09-27T20:56:02.802Z,64.93
2022-09-27T20:58:30.547Z,68.22
2022-09-27T21:00:58.510Z,61.47
2022-09-27T21:03:25.775Z,64.38
2022-09-27T21:05:56.561Z,70.22
2022-09-27T21:08:23.890Z,71.03
2022-09-27T21:10:52.962Z,87.75
2022-09-27T21:13:20.924Z,76.03
2022-09-27T21:15:48.687Z,87.43
2022-09-27T21:18:16.110Z,112.97
2022-09-27T21:20:43.321Z,77.40
2022-09-27T21:23:10.481Z,67.28
2022-09-27T21:25:37.750Z,76.47
2022-09-27T21:28:04.902Z,89.32
2022-09-27T21:30:32.050Z,80.30
2022-09-27T21:33:01.506Z,81.20
2022-09-27T21:35:28.671Z,64.53
2022-09-27T21:37:57.151Z,66.20
2022-09-27T21:40:24.434Z,66.15
2022-09-27T21:42:56.937Z,71.00
2022-09-27T21:45:24.961Z,74.20
2022-09-27T21:47:52.113Z,79.93
2022-09-27T21:50:19.406Z,65.18
2022-09-27T21:52:46.685Z,75.00
2022-09-27T21:55:13.856Z,70.85
2022-09-27T21:57:40.984Z,58.75
2022-09-27T22:00:08.696Z,56.22
2022-09-27T22:02:35.902Z,55.17
2022-09-27T22:05:03.050Z,54.30
2022-09-27T22:07:30.361Z,62.00
2022-09-27T22:09:57.595Z,68.18
2022-09-27T22:12:24.767Z,67.20
2022-09-27T22:14:52.082Z,68.07
2022-09-27T22:17:19.246Z,78.70
2022-09-27T22:19:46.385Z,75.60
2022-09-27T22:22:13.724Z,71.60
2022-09-27T22:24:40.894Z,67.45
2022-09-27T22:27:08.045Z,64.65
2022-09-27T22:29:35.285Z,62.67
2022-09-27T22:32:02.463Z,56.67
2022-09-27T22:34:29.767Z,60.60
2022-09-27T22:36:57.813Z,60.65
2022-09-27T22:39:25.157Z,57.58
2022-09-27T22:41:52.513Z,56.80
2022-09-27T22:44:19.840Z,61.85
2022-09-27T22:46:47.127Z,62.00
2022-09-27T22:49:14.325Z,58.58
2022-09-27T22:51:41.613Z,59.22
2022-09-27T22:54:08.788Z,57.30
2022-09-27T22:56:35.939Z,54.97
2022-09-27T22:59:03.344Z,58.85
2022-09-27T23:01:31.551Z,55.50
2022-09-27T23:03:59.034Z,64.53
2022-09-27T23:06:26.280Z,60.22
2022-09-27T23:08:53.711Z,66.13
2022-09-27T23:11:22.002Z,64.45
2022-09-27T23:13:49.858Z,66.00
2022-09-27T23:16:19.353Z,58.35
2022-09-27T23:18:47.787Z,62.00
2022-09-27T23:21:16.315Z,60.33
2022-09-27T23:23:49.138Z,58.95
2022-09-27T23:26:17.569Z,60.30
2022-09-27T23:28:45.011Z,58.92
2022-09-27T23:31:16.922Z,61.15
2022-09-27T23:33:46.291Z,57.13
2022-09-27T23:36:17.500Z,57.97
2022-09-27T23:41:13.568Z,55.50
2022-09-27T23:43:40.815Z,51.67
2022-09-27T23:46:08.742Z,55.33
2022-09-27T23:48:36.618Z,48.78
2022-09-27T23:51:04.886Z,53.03
2022-09-27T23:53:32.103Z,50.42
2022-09-27T23:56:02.279Z,55.38
2022-09-27T23:58:30.308Z,54.05
